Time;durP1;ratioP1;P1;durP2;ratioP2;P2;SDS_P1;SDS_P2;PMS_P1;PMS_P2;Temp;Humidity;BMP_temperature;BMP_pressure;BME280_temperature;BME280_humidity;BME280_pressure;Samples;Min_cycle;Max_cycle;Signal;HPM_P1;HPM_P2
2024/03/13 00:02:18;;;;;;;;;;;;;;;-146.32;100.00;63746.28;5146341;23;19926;-87
2024/03/13 00:04:43;;;;;;;;;;;;;;;-146.32;100.00;63746.28;5166600;23;20239;-87
2024/03/13 00:07:04;;;;;;;;;;;;;;;-146.32;100.00;63746.28;5168471;23;19926;-87
2024/03/13 00:09:25;;;;;;;;;;;;;;;-146.32;100.00;63746.28;5168648;23;19974;-87
2024/03/13 00:11:46;;;;;;;;;;;;;;;-146.32;100.00;63746.28;5167909;23;19992;-86
2024/03/13 00:14:06;;;;;;;;;;;;;;;-146.32;100.00;63746.28;5166178;23;19926;-88
2024/03/13 00:16:30;;;;;;;;;;;;;;;-146.32;100.00;63746.28;5167497;23;19927;-87
2024/03/13 00:18:51;;;;;;;;;;;;;;;-146.32;100.00;63746.28;5166763;23;19927;-87
2024/03/13 00:21:14;;;;;;;;;;;;;;;-146.32;100.00;63746.28;5167136;23;19927;-89
2024/03/13 00:23:36;;;;;;;;;;;;;;;-146.32;100.00;63746.28;5167399;23;19930;-89
2024/03/13 00:25:57;;;;;;;;;;;;;;;-146.32;100.00;63746.28;5167032;23;19945;-90
2024/03/13 00:28:18;;;;;;;;;;;;;;;-146.32;100.00;63746.28;5168110;23;19926;-89
2024/03/13 00:30:41;;;;;;;;;;;;;;;-146.32;100.00;63746.28;5168674;23;19930;-86
2024/03/13 00:33:02;;;;;;;;;;;;;;;-146.32;100.00;63746.28;5167305;23;20270;-90
2024/03/13 00:35:25;;;;;;;;;;;;;;;-146.32;100.00;63746.28;5166921;23;19931;-89
2024/03/13 00:37:49;;;;;;;;;;;;;;;-146.32;100.00;63746.28;5167511;23;20006;-87
2024/03/13 00:40:11;;;;;;;;;;;;;;;-146.32;100.00;63746.28;5167319;23;19926;-88
2024/03/13 00:42:32;;;;;;;;;;;;;;;-146.32;100.00;63746.28;5168050;23;19935;-88
2024/03/13 00:44:53;;;;;;;;;;;;;;;-146.32;100.00;63746.28;5167330;23;19950;-88
2024/03/13 00:47:14;;;;;;;;;;;;;;;-146.32;100.00;63746.28;5167477;23;19926;-88
2024/03/13 00:49:34;;;;;;;;;;;;;;;-146.32;100.00;63746.28;5166945;23;19946;-88
2024/03/13 00:51:55;;;;;;;;;;;;;;;-146.32;100.00;63746.28;5166866;23;20018;-87
2024/03/13 00:54:20;;;;;;;;;;;;;;;-146.32;100.00;63746.28;5145645;23;19950;-87
2024/03/13 00:56:41;;;;;;;;;;;;;;;-146.32;100.00;63746.28;5166531;23;19978;-87
2024/03/13 00:59:05;;;;;;;;;;;;;;;-146.32;100.00;63746.28;5166734;23;20050;-88
2024/03/13 01:01:26;;;;;;;;;;;;;;;-146.32;100.00;63746.28;5145666;23;19926;-86
2024/03/13 01:03:47;;;;;;;;;;;;;;;-146.32;100.00;63746.28;5166562;23;19971;-86
2024/03/13 01:06:08;;;;;;;;;;;;;;;-146.32;100.00;63746.28;5167869;23;19961;-87
2024/03/13 01:08:29;;;;;;;;;;;;;;;-146.32;100.00;63746.28;5166808;23;19926;-87
2024/03/13 01:10:58;;;;;;;;;;;;;;;-146.32;100.00;63746.28;5168232;23;20385;-86
2024/03/13 01:13:20;;;;;;;;;;;;;;;-146.32;100.00;63746.28;5166553;23;19927;-87
2024/03/13 01:15:41;;;;;;;;;;;;;;;-146.32;100.00;63746.28;5167046;23;19950;-86
2024/03/13 01:18:02;;;;;;;;;;;;;;;-146.32;100.00;63746.28;5166583;23;19927;-87
2024/03/13 01:20:24;;;;;;;;;;;;;;;-146.32;100.00;63746.28;5166031;23;20274;-86
2024/03/13 01:22:47;;;;;;;;;;;;;;;-146.32;100.00;63746.28;5168887;23;19994;-87
2024/03/13 01:25:10;;;;;;;;;;;;;;;-146.32;100.00;63746.28;5166805;23;20014;-87
2024/03/13 01:27:33;;;;;;;;;;;;;;;-146.32;100.00;63746.28;5166192;23;19927;-86
2024/03/13 01:29:54;;;;;;;;;;;;;;;-146.32;100.00;63746.28;5167674;23;19934;-87
2024/03/13 01:32:16;;;;;;;;;;;;;;;-146.32;100.00;63746.28;5166679;23;19996;-87
2024/03/13 01:34:36;;;;;;;;;;;;;;;-146.32;100.00;63746.28;5166601;23;19966;-87
2024/03/13 01:39:36;;;;;;;;;;;;;;;-146.32;100.00;63746.28;5166430;23;20018;-87
2024/03/13 01:55:35;;;;;;;;;;;;;;;-146.32;100.00;63746.28;5166304;23;19977;-86
2024/03/13 01:58:09;;;;;;;;;;;;;;;-146.32;100.00;63746.28;5166113;23;19969;-86
2024/03/13 02:03:10;;;;;;;;;;;;;;;-146.32;100.00;63746.28;5165852;23;20247;-88
2024/03/13 02:05:31;;;;;;;;;;;;;;;-146.32;100.00;63746.28;5166422;23;19946;-87
2024/03/13 02:07:54;;;;;;;;;;;;;;;-146.32;100.00;63746.28;5165904;23;20429;-88
2024/03/13 02:10:15;;;;;;;;;;;;;;;-146.32;100.00;63746.28;5166318;23;19930;-88
2024/03/13 02:12:36;;;;;;;;;;;;;;;-146.32;100.00;63746.28;5165675;23;19974;-88
2024/03/13 02:14:58;;;;;;;;;;;;;;;-146.32;100.00;63746.28;5144731;23;20367;-87
2024/03/13 02:17:21;;;;;;;;;;;;;;;-146.32;100.00;63746.28;5167530;23;20297;-88
2024/03/13 02:19:42;;;;;;;;;;;;;;;-146.32;100.00;63746.28;5166952;23;19966;-88
2024/03/13 02:22:04;;;;;;;;;;;;;;;-146.32;100.00;63746.28;5144882;23;20303;-88
2024/03/13 02:24:25;;;;;;;;;;;;;;;-146.32;100.00;63746.28;5167502;23;20011;-88
2024/03/13 02:26:47;;;;;;;;;;;;;;;-146.32;100.00;63746.28;5165950;23;19970;-88
2024/03/13 02:29:08;;;;;;;;;;;;;;;-146.32;100.00;63746.28;5144396;23;19939;-88
2024/03/13 02:31:31;;;;;;;;;;;;;;;-146.32;100.00;63746.28;5144881;23;19970;-87
2024/03/13 02:33:52;;;;;;;;;;;;;;;-146.32;100.00;63746.28;5144708;23;19947;-87
2024/03/13 02:36:15;;;;;;;;;;;;;;;-146.32;100.00;63746.28;5144501;23;19926;-87
2024/03/13 02:38:36;;;;;;;;;;;;;;;-146.32;100.00;63746.28;5165693;23;19969;-88
2024/03/13 02:40:57;;;;;;;;;;;;;;;-146.32;100.00;63746.28;5165793;23;19927;-87
2024/03/13 02:43:19;;;;;;;;;;;;;;;-146.32;100.00;63746.28;5144620;23;19927;-88
2024/03/13 02:45:40;;;;;;;;;;;;;;;-146.32;100.00;63746.28;5144885;23;20386;-88
2024/03/13 02:48:02;;;;;;;;;;;;;;;-146.32;100.00;63746.28;5144984;23;19930;-87
2024/03/13 02:50:22;;;;;;;;;;;;;;;-146.32;100.00;63746.28;5165275;23;20013;-88
2024/03/13 02:52:43;;;;;;;;;;;;;;;-146.32;100.00;63746.28;5122859;23;19971;-88
2024/03/13 02:55:05;;;;;;;;;;;;;;;-146.32;100.00;63746.28;5165852;23;19931;-87
2024/03/13 02:57:26;;;;;;;;;;;;;;;-146.32;100.00;63746.28;5166176;23;20587;-87
2024/03/13 02:59:47;;;;;;;;;;;;;;;-146.32;100.00;63746.28;5144683;23;19982;-87
2024/03/13 03:02:08;;;;;;;;;;;;;;;-146.32;100.00;63746.28;5145034;23;20326;-87
2024/03/13 03:04:29;;;;;;;;;;;;;;;-146.32;100.00;63746.28;5144114;23;19991;-87
2024/03/13 03:06:50;;;;;;;;;;;;;;;-146.32;100.00;63746.28;5165019;23;19926;-86
2024/03/13 03:09:11;;;;;;;;;;;;;;;-146.32;100.00;63746.28;5144519;23;20422;-86
2024/03/13 03:11:33;;;;;;;;;;;;;;;-146.32;100.00;63746.28;5144499;23;19989;-84
2024/03/13 03:13:54;;;;;;;;;;;;;;;-146.32;100.00;63746.28;5144093;23;19966;-85
2024/03/13 03:16:18;;;;;;;;;;;;;;;-146.32;100.00;63746.28;5165800;23;19930;-85
2024/03/13 03:18:39;;;;;;;;;;;;;;;-146.32;100.00;63746.28;5145477;23;19926;-86
2024/03/13 03:21:02;;;;;;;;;;;;;;;-146.32;100.00;63746.28;5165968;23;19926;-85
2024/03/13 03:23:23;;;;;;;;;;;;;;;-146.32;100.00;63746.28;5145317;23;20199;-86
2024/03/13 03:25:44;;;;;;;;;;;;;;;-146.32;100.00;63746.28;5165663;23;19927;-85
2024/03/13 03:28:05;;;;;;;;;;;;;;;-146.32;100.00;63746.28;5165799;23;20015;-85
2024/03/13 03:30:30;;;;;;;;;;;;;;;-146.32;100.00;63746.28;5166529;23;20014;-85
2024/03/13 03:32:51;;;;;;;;;;;;;;;-146.32;100.00;63746.28;5146372;23;19999;-87
2024/03/13 03:35:12;;;;;;;;;;;;;;;-146.32;100.00;63746.28;5123750;23;20016;-87
2024/03/13 03:37:33;;;;;;;;;;;;;;;-146.32;100.00;63746.28;5166015;23;19926;-87
2024/03/13 03:39:54;;;;;;;;;;;;;;;-146.32;100.00;63746.28;5144922;23;19943;-87
2024/03/13 03:42:15;;;;;;;;;;;;;;;-146.32;100.00;63746.28;5165739;23;20330;-87
2024/03/13 03:44:36;;;;;;;;;;;;;;;-146.32;100.00;63746.28;5165805;23;20045;-87
2024/03/13 03:47:01;;;;;;;;;;;;;;;-146.32;100.00;63746.28;5145179;23;20345;-87
2024/03/13 03:49:22;;;;;;;;;;;;;;;-146.32;100.00;63746.28;5144696;23;19927;-86
2024/03/13 03:51:44;;;;;;;;;;;;;;;-146.32;100.00;63746.28;5144362;23;20003;-87
2024/03/13 03:54:08;;;;;;;;;;;;;;;-146.32;100.00;63746.28;5165838;23;19977;-87
2024/03/13 03:56:30;;;;;;;;;;;;;;;-146.32;100.00;63746.28;5145092;23;20375;-87
2024/03/13 03:58:51;;;;;;;;;;;;;;;-146.32;100.00;63746.28;5144876;23;19926;-87
2024/03/13 04:01:13;;;;;;;;;;;;;;;-146.32;100.00;63746.28;5144652;23;19926;-85
2024/03/13 04:03:35;;;;;;;;;;;;;;;-146.32;100.00;63746.28;5145390;23;19991;-87
2024/03/13 04:05:57;;;;;;;;;;;;;;;-146.32;100.00;63746.28;5146178;23;19930;-86
2024/03/13 04:08:18;;;;;;;;;;;;;;;-146.32;100.00;63746.28;5145933;23;20554;-87
2024/03/13 04:10:39;;;;;;;;;;;;;;;-146.32;100.00;63746.28;5167295;23;20075;-85
2024/03/13 04:13:00;;;;;;;;;;;;;;;-146.32;100.00;63746.28;5147226;23;19966;-86
2024/03/13 04:15:23;;;;;;;;;;;;;;;-146.32;100.00;63746.28;5145369;23;20003;-86
2024/03/13 04:17:44;;;;;;;;;;;;;;;-146.32;100.00;63746.28;5146381;23;19946;-87
2024/03/13 04:20:12;;;;;;;;;;;;;;;-146.32;100.00;63746.28;5145837;23;20374;-88
2024/03/13 04:22:33;;;;;;;;;;;;;;;-146.32;100.00;63746.28;5125984;23;19927;-88
2024/03/13 04:24:54;;;;;;;;;;;;;;;-146.32;100.00;63746.28;5167124;23;19926;-88
2024/03/13 04:27:15;;;;;;;;;;;;;;;-146.32;100.00;63746.28;5145359;23;19930;-87
2024/03/13 04:29:35;;;;;;;;;;;;;;;-146.32;100.00;63746.28;5144549;23;20761;-88
2024/03/13 04:31:57;;;;;;;;;;;;;;;-146.32;100.00;63746.28;5144378;23;19979;-88
2024/03/13 04:34:18;;;;;;;;;;;;;;;-146.32;100.00;63746.28;5166540;23;19926;-88
2024/03/13 04:36:39;;;;;;;;;;;;;;;-146.32;100.00;63746.28;5145974;23;19931;-88
2024/03/13 04:39:00;;;;;;;;;;;;;;;-146.32;100.00;63746.28;5145980;23;19933;-88
2024/03/13 04:41:22;;;;;;;;;;;;;;;-146.32;100.00;63746.28;5167025;23;20002;-89
2024/03/13 04:43:43;;;;;;;;;;;;;;;-146.32;100.00;63746.28;5146229;23;20487;-88
2024/03/13 04:46:04;;;;;;;;;;;;;;;-146.32;100.00;63746.28;5145492;23;19935;-89
2024/03/13 04:48:25;;;;;;;;;;;;;;;-146.32;100.00;63746.28;5145591;23;19927;-87
2024/03/13 04:50:45;;;;;;;;;;;;;;;-146.32;100.00;63746.28;5124043;23;19930;-87
2024/03/13 04:53:06;;;;;;;;;;;;;;;-146.32;100.00;63746.28;5166462;23;19935;-87
2024/03/13 04:55:29;;;;;;;;;;;;;;;-146.32;100.00;63746.28;5145056;23;20006;-86
2024/03/13 04:57:50;;;;;;;;;;;;;;;-146.32;100.00;63746.28;5146028;23;19930;-87
2024/03/13 05:00:11;;;;;;;;;;;;;;;-146.32;100.00;63746.28;5166603;23;19946;-88
2024/03/13 05:02:35;;;;;;;;;;;;;;;-146.32;100.00;63746.28;5166702;23;19954;-87
2024/03/13 05:04:57;;;;;;;;;;;;;;;-146.32;100.00;63746.28;5166626;23;20275;-87
2024/03/13 05:07:18;;;;;;;;;;;;;;;-146.32;100.00;63746.28;5145789;23;19927;-87
2024/03/13 05:09:40;;;;;;;;;;;;;;;-146.32;100.00;63746.28;5166324;23;20279;-87
2024/03/13 05:12:03;;;;;;;;;;;;;;;-146.32;100.00;63746.28;5145812;23;19930;-91
2024/03/13 05:14:27;;;;;;;;;;;;;;;-146.32;100.00;63746.28;5145543;23;19934;-87
2024/03/13 05:16:48;;;;;;;;;;;;;;;-146.32;100.00;63746.28;5144872;23;19931;-87
2024/03/13 05:19:08;;;;;;;;;;;;;;;-146.32;100.00;63746.28;5166138;23;20630;-89
2024/03/13 05:21:29;;;;;;;;;;;;;;;-146.32;100.00;63746.28;5145537;23;19970;-87
2024/03/13 05:23:50;;;;;;;;;;;;;;;-146.32;100.00;63746.28;5145349;23;19999;-87
2024/03/13 05:26:11;;;;;;;;;;;;;;;-146.32;100.00;63746.28;5144982;23;19987;-87
2024/03/13 05:28:33;;;;;;;;;;;;;;;-146.32;100.00;63746.28;5145311;23;19927;-87
2024/03/13 05:30:53;;;;;;;;;;;;;;;-146.32;100.00;63746.28;5122950;23;19931;-87
2024/03/13 05:33:14;;;;;;;;;;;;;;;-146.32;100.00;63746.28;5143231;23;19962;-86
2024/03/13 05:35:35;;;;;;;;;;;;;;;-146.32;100.00;63746.28;5144546;23;19935;-88
2024/03/13 05:37:55;;;;;;;;;;;;;;;-146.32;100.00;63746.28;5166462;23;19962;-88
2024/03/13 05:40:17;;;;;;;;;;;;;;;-146.32;100.00;63746.28;5144807;23;20394;-86
2024/03/13 05:42:38;;;;;;;;;;;;;;;-146.32;100.00;63746.28;5145264;23;19927;-87
2024/03/13 05:45:00;;;;;;;;;;;;;;;-146.32;100.00;63746.28;5145059;23;19926;-86
2024/03/13 05:47:20;;;;;;;;;;;;;;;-146.32;100.00;63746.28;5145114;23;19955;-86
2024/03/13 05:49:42;;;;;;;;;;;;;;;-146.32;100.00;63746.28;5144393;23;19975;-86
2024/03/13 05:52:02;;;;;;;;;;;;;;;-146.32;100.00;63746.28;5145239;23;19990;-85
2024/03/13 05:54:23;;;;;;;;;;;;;;;-146.32;100.00;63746.28;5165569;23;19958;-86
2024/03/13 05:56:44;;;;;;;;;;;;;;;-146.32;100.00;63746.28;5166002;23;19942;-85
2024/03/13 05:59:06;;;;;;;;;;;;;;;-146.32;100.00;63746.28;5166289;23;20238;-86
2024/03/13 06:01:30;;;;;;;;;;;;;;;-146.32;100.00;63746.28;5144855;23;20670;-86
2024/03/13 06:03:53;;;;;;;;;;;;;;;-146.32;100.00;63746.28;5145103;23;19958;-86
2024/03/13 06:06:14;;;;;;;;;;;;;;;-146.32;100.00;63746.28;5145206;23;19987;-84
2024/03/13 06:08:35;;;;;;;;;;;;;;;-146.32;100.00;63746.28;5166339;23;20286;-84
2024/03/13 06:10:56;;;;;;;;;;;;;;;-146.32;100.00;63746.28;5164790;23;19927;-85
2024/03/13 06:13:17;;;;;;;;;;;;;;;-146.32;100.00;63746.28;5144824;23;19927;-84
2024/03/13 06:15:40;;;;;;;;;;;;;;;-146.32;100.00;63746.28;5145069;23;19942;-84
2024/03/13 06:18:01;;;;;;;;;;;;;;;-146.32;100.00;63746.28;5144184;23;19930;-84
2024/03/13 06:20:25;;;;;;;;;;;;;;;-146.32;100.00;63746.28;5165380;23;19974;-85
2024/03/13 06:22:46;;;;;;;;;;;;;;;-146.32;100.00;63746.28;5145332;23;19930;-85
2024/03/13 06:25:08;;;;;;;;;;;;;;;-146.32;100.00;63746.28;5167174;23;19949;-84
2024/03/13 06:27:29;;;;;;;;;;;;;;;-146.32;100.00;63746.28;5165537;23;19970;-85
2024/03/13 06:29:59;;;;;;;;;;;;;;;-146.32;100.00;63746.28;5166243;23;19926;-85
2024/03/13 06:32:20;;;;;;;;;;;;;;;-146.32;100.00;63746.28;5146472;23;19926;-85
2024/03/13 06:34:40;;;;;;;;;;;;;;;-146.32;100.00;63746.28;5164383;23;19983;-88
2024/03/13 06:37:01;;;;;;;;;;;;;;;-146.32;100.00;63746.28;5166207;23;19930;-88
2024/03/13 06:39:23;;;;;;;;;;;;;;;-146.32;100.00;63746.28;5166440;23;19930;-89
2024/03/13 06:41:47;;;;;;;;;;;;;;;-146.32;100.00;63746.28;5145224;23;19954;-86
2024/03/13 06:44:09;;;;;;;;;;;;;;;-146.32;100.00;63746.28;5145380;23;20377;-84
2024/03/13 06:46:33;;;;;;;;;;;;;;;-146.32;100.00;63746.28;5166576;23;19965;-84
2024/03/13 06:48:54;;;;;;;;;;;;;;;-146.32;100.00;63746.28;5145807;23;19973;-86
2024/03/13 06:51:15;;;;;;;;;;;;;;;-146.32;100.00;63746.28;5166231;23;19966;-84
2024/03/13 06:53:36;;;;;;;;;;;;;;;-146.32;100.00;63746.28;5144499;23;19926;-86
2024/03/13 06:55:57;;;;;;;;;;;;;;;-146.32;100.00;63746.28;5165534;23;19926;-88
2024/03/13 06:58:22;;;;;;;;;;;;;;;-146.32;100.00;63746.28;5165491;23;20393;-86
2024/03/13 07:00:43;;;;;;;;;;;;;;;-146.32;100.00;63746.28;5165373;23;19973;-83
2024/03/13 07:03:04;;;;;;;;;;;;;;;-146.32;100.00;63746.28;5165749;23;20011;-85
2024/03/13 07:05:25;;;;;;;;;;;;;;;-146.32;100.00;63746.28;5143433;23;20087;-84
2024/03/13 07:07:46;;;;;;;;;;;;;;;-146.32;100.00;63746.28;5144372;23;19930;-85
2024/03/13 07:10:10;;;;;;;;;;;;;;;-146.32;100.00;63746.28;5165354;23;19930;-84
2024/03/13 07:12:31;;;;;;;;;;;;;;;-146.32;100.00;63746.28;5164958;23;19930;-86
2024/03/13 07:14:52;;;;;;;;;;;;;;;-146.32;100.00;63746.28;5165126;23;19983;-85
2024/03/13 07:17:13;;;;;;;;;;;;;;;-146.32;100.00;63746.28;5165138;23;20042;-85
2024/03/13 07:19:33;;;;;;;;;;;;;;;-146.32;100.00;63746.28;5143723;23;19926;-83
2024/03/13 07:21:54;;;;;;;;;;;;;;;-146.32;100.00;63746.28;5144507;23;20370;-89
2024/03/13 07:24:17;;;;;;;;;;;;;;;-146.32;100.00;63746.28;5144615;23;19946;-89
2024/03/13 07:26:40;;;;;;;;;;;;;;;-146.32;100.00;63746.28;5143457;23;19927;-87
2024/03/13 07:29:04;;;;;;;;;;;;;;;-146.32;100.00;63746.28;5159537;23;19930;-88
2024/03/13 07:31:26;;;;;;;;;;;;;;;-146.32;100.00;63746.28;5142655;23;19982;-88
2024/03/13 07:33:48;;;;;;;;;;;;;;;-146.32;100.00;63746.28;5164158;23;19927;-89
2024/03/13 07:36:11;;;;;;;;;;;;;;;-146.32;100.00;63746.28;5140946;23;19978;-87
2024/03/13 07:38:33;;;;;;;;;;;;;;;-146.32;100.00;63746.28;5164910;23;19930;-87
2024/03/13 07:40:54;;;;;;;;;;;;;;;-146.32;100.00;63746.28;5144779;23;20027;-89
2024/03/13 07:43:16;;;;;;;;;;;;;;;-146.32;100.00;63746.28;5166174;23;19970;-88
2024/03/13 07:45:37;;;;;;;;;;;;;;;-146.32;100.00;63746.28;5145598;23;19987;-88
2024/03/13 07:47:58;;;;;;;;;;;;;;;-146.32;100.00;63746.28;5166771;23;19970;-88
2024/03/13 07:50:23;;;;;;;;;;;;;;;-146.32;100.00;63746.28;5144607;23;20006;-87
2024/03/13 07:52:46;;;;;;;;;;;;;;;-146.32;100.00;63746.28;5145414;23;20660;-84
2024/03/13 07:55:07;;;;;;;;;;;;;;;-146.32;100.00;63746.28;5145271;23;19927;-84
2024/03/13 07:57:29;;;;;;;;;;;;;;;-146.32;100.00;63746.28;5166121;23;19942;-85
2024/03/13 07:59:48;;;;;;;;;;;;;;;-146.32;100.00;63746.28;5144822;23;19950;-84
2024/03/13 08:02:09;;;;;;;;;;;;;;;-146.32;100.00;63746.28;5144749;23;19930;-83
2024/03/13 08:04:30;;;;;;;;;;;;;;;-146.32;100.00;63746.28;5166681;23;19970;-83
2024/03/13 08:06:53;;;;;;;;;;;;;;;-146.32;100.00;63746.28;5167215;23;19927;-83
2024/03/13 08:09:14;;;;;;;;;;;;;;;-146.32;100.00;63746.28;5166750;23;19973;-84
2024/03/13 08:11:35;;;;;;;;;;;;;;;-146.32;100.00;63746.28;5166347;23;19979;-83
2024/03/13 08:13:57;;;;;;;;;;;;;;;-146.32;100.00;63746.28;5166701;23;19931;-84
2024/03/13 08:16:18;;;;;;;;;;;;;;;-146.32;100.00;63746.28;5167194;23;19978;-83
2024/03/13 08:18:39;;;;;;;;;;;;;;;-146.32;100.00;63746.28;5166489;23;20365;-84
2024/03/13 08:21:00;;;;;;;;;;;;;;;-146.32;100.00;63746.28;5167095;23;19974;-83
2024/03/13 08:23:20;;;;;;;;;;;;;;;-146.32;100.00;63746.28;5166660;23;19985;-82
2024/03/13 08:25:41;;;;;;;;;;;;;;;-146.32;100.00;63746.28;5165745;23;19995;-83
2024/03/13 08:28:03;;;;;;;;;;;;;;;-146.32;100.00;63746.28;5145318;23;19987;-82
2024/03/13 08:30:26;;;;;;;;;;;;;;;-146.32;100.00;63746.28;5145214;23;19970;-83
2024/03/13 08:32:47;;;;;;;;;;;;;;;-146.32;100.00;63746.28;5144994;23;20021;-83
2024/03/13 08:35:09;;;;;;;;;;;;;;;-146.32;100.00;63746.28;5145036;23;19974;-84
2024/03/13 08:37:30;;;;;;;;;;;;;;;-146.32;100.00;63746.28;5167370;23;19968;-84
2024/03/13 08:39:51;;;;;;;;;;;;;;;-146.32;100.00;63746.28;5166319;23;19941;-83
2024/03/13 08:42:13;;;;;;;;;;;;;;;-146.32;100.00;63746.28;5166085;23;19977;-82
2024/03/13 08:44:34;;;;;;;;;;;;;;;-146.32;100.00;63746.28;5166022;23;19975;-84
2024/03/13 08:46:55;;;;;;;;;;;;;;;-146.32;100.00;63746.28;5144679;23;19926;-82
2024/03/13 08:49:15;;;;;;;;;;;;;;;-146.32;100.00;63746.28;5143089;23;19927;-83
2024/03/13 08:51:36;;;;;;;;;;;;;;;-146.32;100.00;63746.28;5144367;23;19930;-84
2024/03/13 08:53:57;;;;;;;;;;;;;;;-146.32;100.00;63746.28;5165887;23;19929;-83
2024/03/13 08:56:19;;;;;;;;;;;;;;;-146.32;100.00;63746.28;5145609;23;19931;-83
2024/03/13 08:58:44;;;;;;;;;;;;;;;-146.32;100.00;63746.28;5167463;23;19998;-82
2024/03/13 09:01:07;;;;;;;;;;;;;;;-146.32;100.00;63746.28;5166125;23;19930;-82
2024/03/13 09:03:28;;;;;;;;;;;;;;;-146.32;100.00;63746.28;5166412;23;19927;-82
2024/03/13 09:05:49;;;;;;;;;;;;;;;-146.32;100.00;63746.28;5166243;23;19926;-82
2024/03/13 09:08:10;;;;;;;;;;;;;;;-146.32;100.00;63746.28;5166932;23;19954;-81
2024/03/13 09:10:30;;;;;;;;;;;;;;;-146.32;100.00;63746.28;5168110;23;19977;-84
2024/03/13 09:12:51;;;;;;;;;;;;;;;-146.32;100.00;63746.28;5166774;23;19946;-85
2024/03/13 09:15:13;;;;;;;;;;;;;;;-146.32;100.00;63746.28;5166448;23;20307;-83
2024/03/13 09:17:34;;;;;;;;;;;;;;;-146.32;100.00;63746.28;5146897;23;19982;-84
2024/03/13 09:19:55;;;;;;;;;;;;;;;-146.32;100.00;63746.28;5167575;23;19927;-84
2024/03/13 09:22:18;;;;;;;;;;;;;;;-146.32;100.00;63746.28;5167733;23;19934;-82
2024/03/13 09:24:39;;;;;;;;;;;;;;;-146.32;100.00;63746.28;5168210;23;19974;-83
2024/03/13 09:27:01;;;;;;;;;;;;;;;-146.32;100.00;63746.28;5166405;23;19945;-82
2024/03/13 09:29:22;;;;;;;;;;;;;;;-146.32;100.00;63746.28;5166215;23;19954;-83
2024/03/13 09:31:43;;;;;;;;;;;;;;;-146.32;100.00;63746.28;5165365;23;19930;-82
2024/03/13 09:34:04;;;;;;;;;;;;;;;-146.32;100.00;63746.28;5145022;23;19930;-83
2024/03/13 09:36:25;;;;;;;;;;;;;;;-146.32;100.00;63746.28;5165126;23;19966;-82
2024/03/13 09:38:45;;;;;;;;;;;;;;;-146.32;100.00;63746.28;5166634;23;19926;-82
2024/03/13 09:41:06;;;;;;;;;;;;;;;-146.32;100.00;63746.28;5165753;23;19993;-83
2024/03/13 09:43:29;;;;;;;;;;;;;;;-146.32;100.00;63746.28;5166177;23;19985;-82
2024/03/13 09:45:50;;;;;;;;;;;;;;;-146.32;100.00;63746.28;5145340;23;19930;-82
2024/03/13 09:48:12;;;;;;;;;;;;;;;-146.32;100.00;63746.28;5145168;23;19962;-82
2024/03/13 09:50:32;;;;;;;;;;;;;;;-146.32;100.00;63746.28;5144302;23;19930;-82
2024/03/13 09:52:53;;;;;;;;;;;;;;;-146.32;100.00;63746.28;5144373;23;19927;-82
2024/03/13 09:55:15;;;;;;;;;;;;;;;-146.32;100.00;63746.28;5166250;23;19926;-82
2024/03/13 09:57:35;;;;;;;;;;;;;;;-146.32;100.00;63746.28;5165308;23;19927;-84
2024/03/13 09:59:56;;;;;;;;;;;;;;;-146.32;100.00;63746.28;5165913;23;20326;-84
2024/03/13 10:02:18;;;;;;;;;;;;;;;-146.32;100.00;63746.28;5165784;23;20036;-87
2024/03/13 10:04:39;;;;;;;;;;;;;;;-146.32;100.00;63746.28;5145048;23;20059;-94
2024/03/13 10:07:00;;;;;;;;;;;;;;;-146.32;100.00;63746.28;5144236;23;19930;-86
2024/03/13 10:09:23;;;;;;;;;;;;;;;-146.32;100.00;63746.28;5165472;23;19962;-87
2024/03/13 10:11:46;;;;;;;;;;;;;;;-146.32;100.00;63746.28;5164606;23;19927;-86
2024/03/13 10:14:09;;;;;;;;;;;;;;;-146.32;100.00;63746.28;5165661;23;19973;-87
2024/03/13 10:16:32;;;;;;;;;;;;;;;-146.32;100.00;63746.28;5145505;23;19999;-87
2024/03/13 10:18:54;;;;;;;;;;;;;;;-146.32;100.00;63746.28;5145106;23;19945;-86
2024/03/13 10:21:15;;;;;;;;;;;;;;;-146.32;100.00;63746.28;5165024;23;19956;-87
2024/03/13 10:23:36;;;;;;;;;;;;;;;-146.32;100.00;63746.28;5144178;23;19965;-88
2024/03/13 10:25:57;;;;;;;;;;;;;;;-146.32;100.00;63746.28;5144710;23;19994;-89
2024/03/13 10:28:18;;;;;;;;;;;;;;;-146.32;100.00;63746.28;5144166;23;19927;-88
2024/03/13 10:30:38;;;;;;;;;;;;;;;-146.32;100.00;63746.28;5165543;23;20351;-88
2024/03/13 10:33:00;;;;;;;;;;;;;;;-146.32;100.00;63746.28;5143862;23;19927;-88
2024/03/13 10:35:25;;;;;;;;;;;;;;;-146.32;100.00;63746.28;5165231;23;19974;-88
2024/03/13 10:37:46;;;;;;;;;;;;;;;-146.32;100.00;63746.28;5145025;23;19991;-88
2024/03/13 10:40:08;;;;;;;;;;;;;;;-146.32;100.00;63746.28;5143946;23;20409;-87
2024/03/13 10:42:29;;;;;;;;;;;;;;;-146.32;100.00;63746.28;5144013;23;19986;-88
2024/03/13 10:44:50;;;;;;;;;;;;;;;-146.32;100.00;63746.28;5166255;23;19926;-95
2024/03/13 10:47:15;;;;;;;;;;;;;;;-146.32;100.00;63746.28;5124142;23;20421;-91
2024/03/13 10:49:39;;;;;;;;;;;;;;;-146.32;100.00;63746.28;5145176;23;19934;-92
2024/03/13 10:52:02;;;;;;;;;;;;;;;-146.32;100.00;63746.28;5143103;23;20401;-86
2024/03/13 10:54:27;;;;;;;;;;;;;;;-146.32;100.00;63746.28;5145564;23;19927;-86
2024/03/13 10:56:50;;;;;;;;;;;;;;;-146.32;100.00;63746.28;5144107;23;20023;-88
2024/03/13 10:59:12;;;;;;;;;;;;;;;-146.32;100.00;63746.28;5144236;23;19930;-89
2024/03/13 11:01:33;;;;;;;;;;;;;;;-146.32;100.00;63746.28;5166017;23;19926;-88
2024/03/13 11:04:00;;;;;;;;;;;;;;;-146.32;100.00;63746.28;5165091;23;20283;-86
2024/03/13 11:06:21;;;;;;;;;;;;;;;-146.32;100.00;63746.28;5164803;23;19934;-86
2024/03/13 11:08:43;;;;;;;;;;;;;;;-146.32;100.00;63746.28;5144964;23;20393;-86
2024/03/13 11:11:12;;;;;;;;;;;;;;;-146.32;100.00;63746.28;5165200;23;19974;-90
2024/03/13 11:13:33;;;;;;;;;;;;;;;-146.32;100.00;63746.28;5144693;23;20022;-91
2024/03/13 11:15:55;;;;;;;;;;;;;;;-146.32;100.00;63746.28;5165376;23;19927;-88
2024/03/13 11:18:16;;;;;;;;;;;;;;;-146.32;100.00;63746.28;5165283;23;19989;-88
2024/03/13 11:20:38;;;;;;;;;;;;;;;-146.32;100.00;63746.28;5122372;23;19932;-88
2024/03/13 11:22:59;;;;;;;;;;;;;;;-146.32;100.00;63746.28;5144746;23;19991;-88
2024/03/13 11:25:20;;;;;;;;;;;;;;;-146.32;100.00;63746.28;5143708;23;20071;-88
2024/03/13 11:27:42;;;;;;;;;;;;;;;-146.32;100.00;63746.28;5165256;23;19954;-87
2024/03/13 11:30:06;;;;;;;;;;;;;;;-146.32;100.00;63746.28;5144639;23;20409;-88
2024/03/13 11:32:35;;;;;;;;;;;;;;;-146.32;100.00;63746.28;5165288;23;19993;-89
2024/03/13 11:34:56;;;;;;;;;;;;;;;-146.32;100.00;63746.28;5143437;23;19931;-87
2024/03/13 11:37:17;;;;;;;;;;;;;;;-146.32;100.00;63746.28;5164717;23;20414;-87
2024/03/13 11:39:38;;;;;;;;;;;;;;;-146.32;100.00;63746.28;5143636;23;19962;-87
2024/03/13 11:42:06;;;;;;;;;;;;;;;-146.32;100.00;63746.28;5143634;23;19930;-88
2024/03/13 11:44:32;;;;;;;;;;;;;;;-146.32;100.00;63746.28;5144652;23;19942;-88
2024/03/13 11:46:54;;;;;;;;;;;;;;;-146.32;100.00;63746.28;5143960;23;20385;-89
2024/03/13 11:49:15;;;;;;;;;;;;;;;-146.32;100.00;63746.28;5165314;23;19954;-87
2024/03/13 11:51:36;;;;;;;;;;;;;;;-146.32;100.00;63746.28;5164392;23;19926;-89
2024/03/13 11:53:57;;;;;;;;;;;;;;;-146.32;100.00;63746.28;5144767;23;19926;-89
2024/03/13 11:56:24;;;;;;;;;;;;;;;-146.32;100.00;63746.28;5166424;23;19927;-89
2024/03/13 11:58:46;;;;;;;;;;;;;;;-146.32;100.00;63746.28;5143977;23;19953;-91
2024/03/13 12:01:12;;;;;;;;;;;;;;;-146.32;100.00;63746.28;5164960;23;19927;-89
2024/03/13 12:03:40;;;;;;;;;;;;;;;-146.32;100.00;63746.28;5143214;23;19950;-90
2024/03/13 12:06:01;;;;;;;;;;;;;;;-146.32;100.00;63746.28;5144553;23;19926;-90
2024/03/13 12:08:22;;;;;;;;;;;;;;;-146.32;100.00;63746.28;5142268;23;20007;-88
2024/03/13 12:10:43;;;;;;;;;;;;;;;-146.32;100.00;63746.28;5143899;23;19927;-89